Time;durP1;ratioP1;P1;durP2;ratioP2;P2;SDS_P1;SDS_P2;PMS_P1;PMS_P2;Temp;Humidity;BMP_temperature;BMP_pressure;BME280_temperature;BME280_humidity;BME280_pressure;Samples;Min_cycle;Max_cycle;Signal;HPM_P1;HPM_P2
2023/06/30 00:00:12;;;;;;;4.43;4.03;;;18.00;99.90;;;;;;5067765;28;20044;-65
2023/06/30 00:02:42;;;;;;;8.35;4.65;;;18.00;99.90;;;;;;5059485;28;20314;-63
2023/06/30 00:05:15;;;;;;;5.68;3.38;;;18.00;99.90;;;;;;5071769;28;20062;-63
2023/06/30 00:07:45;;;;;;;4.15;3.75;;;17.90;99.90;;;;;;5071398;28;20291;-66
2023/06/30 00:10:12;;;;;;;4.78;3.90;;;17.90;99.90;;;;;;5071369;28;20043;-64
2023/06/30 00:12:39;;;;;;;5.10;4.20;;;17.90;99.90;;;;;;5071605;28;20094;-64
2023/06/30 00:15:06;;;;;;;6.38;4.10;;;17.80;99.90;;;;;;5070341;28;20055;-64
2023/06/30 00:17:33;;;;;;;4.20;3.90;;;17.80;99.90;;;;;;5070873;28;20313;-65
2023/06/30 00:20:05;;;;;;;4.38;3.70;;;17.70;99.90;;;;;;5072664;28;20144;-63
2023/06/30 00:22:36;;;;;;;6.50;4.03;;;17.70;99.90;;;;;;5071445;28;20498;-64
2023/06/30 00:25:04;;;;;;;7.55;4.90;;;17.60;99.90;;;;;;5071584;28;20051;-66
2023/06/30 00:27:30;;;;;;;6.15;4.03;;;17.60;99.90;;;;;;5071716;28;20052;-64
2023/06/30 00:29:57;;;;;;;4.72;4.00;;;17.60;99.90;;;;;;5069162;28;20083;-65
2023/06/30 00:32:28;;;;;;;3.72;3.35;;;17.60;99.90;;;;;;5061355;28;22040;-64
2023/06/30 00:34:55;;;;;;;5.50;4.30;;;17.60;99.90;;;;;;5071074;28;20032;-66
2023/06/30 00:37:22;;;;;;;5.55;4.50;;;17.60;99.90;;;;;;5053334;28;20059;-63
2023/06/30 00:39:49;;;;;;;3.90;3.50;;;17.50;99.90;;;;;;5070556;28;20051;-65
2023/06/30 00:42:16;;;;;;;6.13;3.45;;;17.50;99.90;;;;;;5052938;28;20052;-65
2023/06/30 00:44:44;;;;;;;7.82;4.70;;;17.50;99.90;;;;;;5070469;28;20046;-64
2023/06/30 00:47:11;;;;;;;7.53;5.15;;;17.40;99.90;;;;;;5069417;28;20041;-65
2023/06/30 00:49:39;;;;;;;4.20;3.80;;;17.40;99.90;;;;;;5049916;28;20590;-64
2023/06/30 00:52:06;;;;;;;6.30;4.47;;;17.40;99.90;;;;;;5068751;28;20052;-65
2023/06/30 00:54:34;;;;;;;4.50;4.10;;;17.40;99.90;;;;;;5071147;28;20036;-64
2023/06/30 00:57:05;;;;;;;5.22;4.35;;;17.40;99.90;;;;;;5071030;28;20047;-64
2023/06/30 00:59:32;;;;;;;8.32;5.10;;;17.30;99.90;;;;;;5060392;28;20050;-64
2023/06/30 01:02:20;;;;;;;5.47;3.70;;;17.30;99.90;;;;;;5055398;28;20048;-66
2023/06/30 01:04:54;;;;;;;5.50;4.10;;;17.30;99.90;;;;;;5068643;28;20106;-64
2023/06/30 01:07:37;;;;;;;4.70;4.30;;;17.30;99.90;;;;;;5070525;28;20109;-63
2023/06/30 01:10:12;;;;;;;4.10;3.80;;;17.20;99.90;;;;;;5054322;28;20045;-64
2023/06/30 01:12:40;;;;;;;4.75;4.18;;;17.10;99.90;;;;;;5070862;28;20038;-64
2023/06/30 01:15:10;;;;;;;;;;;17.10;99.90;;;;;;5071165;28;20151;-64
2023/06/30 01:17:48;;;;;;;7.80;4.23;;;17.10;99.90;;;;;;5054857;28;19924;-66
2023/06/30 01:20:19;;;;;;;5.93;5.35;;;17.10;99.90;;;;;;5069390;28;20126;-64
2023/06/30 01:23:15;;;;;;;4.75;4.10;;;17.10;99.90;;;;;;5071273;28;20047;-64
2023/06/30 01:25:43;;;;;;;4.47;4.07;;;17.10;99.90;;;;;;5067771;28;20053;-65
2023/06/30 01:28:11;;;;;;;4.93;4.22;;;17.20;99.90;;;;;;5070018;28;20063;-65
2023/06/30 01:30:38;;;;;;;3.95;3.47;;;17.30;99.90;;;;;;5069025;28;20158;-64
2023/06/30 01:33:05;;;;;;;4.80;4.30;;;17.30;99.90;;;;;;5069969;28;20036;-64
2023/06/30 01:35:33;;;;;;;5.40;4.55;;;17.50;99.90;;;;;;5069976;28;20044;-63
2023/06/30 01:38:02;;;;;;;5.10;4.18;;;17.60;99.90;;;;;;5069469;28;20047;-64
2023/06/30 01:40:29;;;;;;;4.47;4.07;;;17.70;99.90;;;;;;5070024;28;20045;-63
2023/06/30 01:42:57;;;;;;;4.88;4.15;;;17.70;99.90;;;;;;5070853;28;20083;-64
2023/06/30 01:45:26;;;;;;;5.85;5.35;;;17.70;99.90;;;;;;5069244;28;20051;-65
2023/06/30 01:47:55;;;;;;;4.78;4.38;;;17.80;99.90;;;;;;5060319;28;20101;-64
2023/06/30 01:50:22;;;;;;;5.68;4.05;;;17.90;99.90;;;;;;5069898;28;20035;-64
2023/06/30 01:52:50;;;;;;;5.05;4.45;;;18.00;99.90;;;;;;5067708;28;20786;-64
2023/06/30 01:55:17;;;;;;;5.00;4.60;;;18.00;99.90;;;;;;5061781;28;20044;-65
2023/06/30 01:57:44;;;;;;;4.95;4.55;;;18.10;99.90;;;;;;5058919;28;20139;-66
2023/06/30 02:00:11;;;;;;;4.85;4.35;;;18.10;99.90;;;;;;5051904;28;20498;-64
2023/06/30 02:02:39;;;;;;;5.05;4.65;;;18.20;99.90;;;;;;5067935;28;20620;-65
2023/06/30 02:05:08;;;;;;;5.55;5.05;;;18.20;99.90;;;;;;5068926;28;20072;-62
2023/06/30 02:07:36;;;;;;;5.90;5.40;;;18.30;99.90;;;;;;5066751;28;21027;-65
2023/06/30 02:10:07;;;;;;;5.18;4.68;;;18.20;99.90;;;;;;5044330;28;20090;-66
2023/06/30 02:12:35;;;;;;;5.38;4.93;;;18.30;99.90;;;;;;5051440;28;20048;-66
2023/06/30 02:15:03;;;;;;;5.43;4.78;;;18.30;99.90;;;;;;5067488;28;20283;-64
2023/06/30 02:17:31;;;;;;;5.57;4.70;;;18.30;99.90;;;;;;5069602;28;20056;-64
2023/06/30 02:20:03;;;;;;;5.88;5.38;;;18.30;99.90;;;;;;5069333;28;20052;-64
2023/06/30 02:22:30;;;;;;;5.43;4.90;;;18.30;99.90;;;;;;5067982;28;20354;-64
2023/06/30 02:24:57;;;;;;;6.45;5.32;;;18.20;99.90;;;;;;5067999;28;20127;-64
2023/06/30 02:27:25;;;;;;;5.85;5.35;;;18.30;99.90;;;;;;5057233;28;20169;-64
2023/06/30 02:29:52;;;;;;;4.88;4.30;;;18.30;99.90;;;;;;5069110;28;20117;-64
2023/06/30 02:32:19;;;;;;;4.90;4.43;;;18.10;99.90;;;;;;5052884;28;20064;-65
2023/06/30 02:34:46;;;;;;;4.57;4.28;;;18.00;99.90;;;;;;5068662;28;20040;-64
2023/06/30 02:37:13;;;;;;;6.80;6.10;;;18.10;99.90;;;;;;5068536;28;20138;-65
2023/06/30 02:39:41;;;;;;;7.22;5.80;;;18.10;99.90;;;;;;5072995;28;20047;-65
2023/06/30 02:42:08;;;;;;;6.93;5.28;;;18.20;99.90;;;;;;5066548;28;20047;-66
2023/06/30 02:44:35;;;;;;;6.47;4.40;;;18.10;99.90;;;;;;5068169;28;20064;-66
2023/06/30 02:47:02;;;;;;;5.47;5.03;;;18.20;99.90;;;;;;5050703;28;20047;-66
2023/06/30 02:49:30;;;;;;;6.40;4.55;;;18.20;99.90;;;;;;5068731;28;20070;-66
2023/06/30 02:51:59;;;;;;;7.45;4.60;;;18.20;99.90;;;;;;5069007;28;20086;-64
2023/06/30 02:54:27;;;;;;;6.75;5.05;;;18.20;99.90;;;;;;5050481;28;20379;-64
2023/06/30 02:56:54;;;;;;;4.25;3.95;;;18.20;99.90;;;;;;5057716;28;20054;-65
2023/06/30 02:59:21;;;;;;;7.93;5.88;;;18.20;99.90;;;;;;5056296;28;20056;-66
2023/06/30 03:01:47;;;;;;;5.68;4.20;;;18.30;99.90;;;;;;5068204;28;20040;-64
2023/06/30 03:04:15;;;;;;;4.38;3.97;;;18.30;99.90;;;;;;5066251;28;20040;-65
2023/06/30 03:06:42;;;;;;;4.38;3.97;;;18.40;99.90;;;;;;5067656;28;20053;-64
2023/06/30 03:09:10;;;;;;;5.75;4.30;;;18.40;99.90;;;;;;5062878;28;20155;-65
2023/06/30 03:11:38;;;;;;;4.78;4.35;;;18.40;99.90;;;;;;5047540;28;20049;-64
2023/06/30 03:14:05;;;;;;;4.45;3.88;;;18.50;99.90;;;;;;5072522;28;20295;-65
2023/06/30 03:16:40;;;;;;;4.50;3.97;;;18.60;99.90;;;;;;5049247;28;20052;-64
2023/06/30 03:19:07;;;;;;;3.80;3.30;;;18.60;99.90;;;;;;5062583;28;20353;-66
2023/06/30 03:21:34;;;;;;;7.68;3.42;;;18.60;99.90;;;;;;5057757;28;20109;-65
2023/06/30 03:24:01;;;;;;;4.13;3.65;;;18.80;99.90;;;;;;5049852;28;20514;-64
2023/06/30 03:26:28;;;;;;;3.38;3.08;;;18.80;99.90;;;;;;5073005;28;20075;-66
2023/06/30 03:28:55;;;;;;;4.72;2.58;;;18.90;99.90;;;;;;5065482;28;20109;-64
2023/06/30 03:31:24;;;;;;;4.72;3.78;;;18.90;99.90;;;;;;5047096;28;20139;-65
2023/06/30 03:33:51;;;;;;;4.38;3.28;;;19.00;99.90;;;;;;5043877;28;21144;-64
2023/06/30 03:36:18;;;;;;;4.95;3.50;;;19.00;99.90;;;;;;5046362;28;20521;-64
2023/06/30 03:38:45;;;;;;;4.15;3.70;;;19.10;99.90;;;;;;5067105;28;20138;-64
2023/06/30 03:41:12;;;;;;;4.38;3.80;;;19.20;99.90;;;;;;5048482;28;20141;-66
2023/06/30 03:43:40;;;;;;;5.15;3.22;;;19.20;99.90;;;;;;5067986;28;20132;-64
2023/06/30 03:46:09;;;;;;;5.20;4.75;;;19.30;99.90;;;;;;5068324;28;20078;-66
2023/06/30 03:48:36;;;;;;;4.15;3.38;;;19.30;99.90;;;;;;5065438;28;20116;-64
2023/06/30 03:51:03;;;;;;;4.75;3.30;;;19.40;99.90;;;;;;5067805;28;20486;-66
2023/06/30 03:53:30;;;;;;;10.10;3.80;;;19.40;99.90;;;;;;5052666;28;20462;-63
2023/06/30 03:55:58;;;;;;;3.47;3.17;;;19.50;99.90;;;;;;5072180;28;20101;-64
2023/06/30 03:58:25;;;;;;;11.52;4.35;;;19.50;99.90;;;;;;5065258;28;20051;-64
2023/06/30 04:00:53;;;;;;;3.45;3.00;;;19.50;99.90;;;;;;5052730;28;20052;-64
2023/06/30 04:03:20;;;;;;;5.03;2.78;;;19.60;99.90;;;;;;5067190;28;20036;-64
2023/06/30 04:05:47;;;;;;;3.70;3.38;;;19.60;99.90;;;;;;5065883;28;20051;-65
2023/06/30 04:08:14;;;;;;;3.80;3.00;;;19.60;99.90;;;;;;5067023;28;20075;-65
2023/06/30 04:10:41;;;;;;;2.75;2.55;;;19.70;99.90;;;;;;5066942;28;20041;-65
2023/06/30 04:13:08;;;;;;;5.07;3.05;;;19.70;99.90;;;;;;5067521;28;20040;-65
2023/06/30 04:15:36;;;;;;;3.88;2.72;;;19.70;99.90;;;;;;5068096;28;20087;-64
2023/06/30 04:18:04;;;;;;;2.75;2.42;;;19.70;99.90;;;;;;5066675;28;21043;-64
2023/06/30 04:20:31;;;;;;;3.28;2.30;;;19.80;99.90;;;;;;5067471;28;20506;-64
2023/06/30 04:22:58;;;;;;;5.28;2.50;;;19.80;99.90;;;;;;5065301;28;20521;-63
2023/06/30 04:25:24;;;;;;;5.75;3.58;;;19.90;99.90;;;;;;5067239;28;20127;-64
2023/06/30 04:27:51;;;;;;;4.13;2.40;;;19.90;99.90;;;;;;5067136;28;20121;-64
2023/06/30 04:30:18;;;;;;;3.05;2.33;;;19.90;99.90;;;;;;5066312;28;20470;-65
2023/06/30 04:32:46;;;;;;;3.10;2.67;;;20.00;99.90;;;;;;5067208;28;20452;-64
2023/06/30 04:35:15;;;;;;;2.95;2.70;;;20.00;99.90;;;;;;5067022;28;20032;-65
2023/06/30 04:37:42;;;;;;;3.72;2.88;;;20.10;99.90;;;;;;5068053;28;20049;-64
2023/06/30 04:40:09;;;;;;;3.10;2.90;;;20.10;99.90;;;;;;5065893;28;20070;-66
2023/06/30 04:42:37;;;;;;;7.10;3.30;;;20.20;99.90;;;;;;5066255;28;20048;-64
2023/06/30 04:45:05;;;;;;;4.25;3.85;;;20.20;99.90;;;;;;5067915;28;20608;-65
2023/06/30 04:47:31;;;;;;;3.47;2.55;;;20.30;99.90;;;;;;5066108;28;20526;-66
2023/06/30 04:49:58;;;;;;;5.47;3.90;;;20.40;99.90;;;;;;5071052;28;20051;-65
2023/06/30 04:52:25;;;;;;;3.88;3.50;;;20.40;99.90;;;;;;5070486;28;20496;-64
2023/06/30 04:54:52;;;;;;;4.57;3.20;;;20.50;99.90;;;;;;5068518;28;20136;-66
2023/06/30 04:57:19;;;;;;;4.45;3.47;;;20.40;99.90;;;;;;5068986;28;20059;-63
2023/06/30 04:59:46;;;;;;;3.38;3.00;;;20.50;99.90;;;;;;5070736;28;20044;-65
2023/06/30 05:02:13;;;;;;;4.90;2.35;;;20.50;99.90;;;;;;5070331;28;20610;-66
2023/06/30 05:04:40;;;;;;;4.38;2.88;;;20.50;99.90;;;;;;5071041;28;20144;-65
2023/06/30 05:07:09;;;;;;;3.33;3.03;;;20.50;99.90;;;;;;5071591;28;20072;-65
2023/06/30 05:09:36;;;;;;;2.80;2.60;;;20.50;99.90;;;;;;5069686;28;20478;-64
2023/06/30 05:12:04;;;;;;;5.15;2.78;;;20.60;99.90;;;;;;5069994;28;20094;-64
2023/06/30 05:14:31;;;;;;;2.88;2.53;;;20.60;99.90;;;;;;5070130;28;20044;-63
2023/06/30 05:16:58;;;;;;;2.60;2.38;;;20.70;99.90;;;;;;5070872;28;20491;-64
2023/06/30 05:19:25;;;;;;;3.17;2.95;;;20.80;99.90;;;;;;5069926;28;20201;-65
2023/06/30 05:21:52;;;;;;;3.45;2.88;;;20.80;99.90;;;;;;5070446;28;20119;-65
2023/06/30 05:24:19;;;;;;;2.58;2.38;;;20.90;99.90;;;;;;5069621;28;20040;-64
2023/06/30 05:26:46;;;;;;;6.57;2.88;;;20.90;99.90;;;;;;5070784;28;20068;-66
2023/06/30 05:29:13;;;;;;;2.60;2.40;;;20.90;99.90;;;;;;5068259;28;20155;-64
2023/06/30 05:31:40;;;;;;;2.20;2.00;;;21.00;99.90;;;;;;5070385;28;20531;-64
2023/06/30 05:34:08;;;;;;;3.45;2.45;;;21.00;99.90;;;;;;5070378;28;20105;-65
2023/06/30 05:36:35;;;;;;;3.10;2.90;;;21.10;99.90;;;;;;5069844;28;20054;-64
2023/06/30 05:39:03;;;;;;;3.30;2.38;;;21.10;99.90;;;;;;5069508;28;20891;-64
2023/06/30 05:41:30;;;;;;;2.65;2.45;;;21.20;99.90;;;;;;5069807;28;20136;-65
2023/06/30 05:43:57;;;;;;;3.22;2.78;;;21.30;99.90;;;;;;5070383;28;20074;-66
2023/06/30 05:46:23;;;;;;;2.70;2.50;;;21.30;99.90;;;;;;5068457;28;20047;-65
2023/06/30 05:48:50;;;;;;;3.47;2.47;;;21.30;99.90;;;;;;5069998;28;20036;-65
2023/06/30 05:51:17;;;;;;;2.90;2.65;;;21.30;99.90;;;;;;5069009;28;20048;-66
2023/06/30 05:53:44;;;;;;;2.25;2.05;;;21.30;99.90;;;;;;5069613;28;20404;-63
2023/06/30 05:56:11;;;;;;;2.30;2.10;;;21.30;99.90;;;;;;5068747;28;20135;-64
2023/06/30 05:58:40;;;;;;;3.03;2.42;;;21.20;99.90;;;;;;5070197;28;20102;-65
2023/06/30 06:01:07;;;;;;;3.75;2.85;;;21.10;99.90;;;;;;5067213;28;20044;-63
2023/06/30 06:03:34;;;;;;;2.22;1.85;;;21.20;99.90;;;;;;5069928;28;20500;-65
2023/06/30 06:06:01;;;;;;;3.08;2.88;;;21.30;99.90;;;;;;5069889;28;20463;-64
2023/06/30 06:08:28;;;;;;;2.65;2.33;;;21.30;99.90;;;;;;5068714;28;20109;-64
2023/06/30 06:10:55;;;;;;;2.80;2.60;;;21.40;99.90;;;;;;5069166;28;20047;-65
2023/06/30 06:13:33;;;;;;;2.67;2.47;;;21.40;99.90;;;;;;5069280;28;20737;-65
2023/06/30 06:16:01;;;;;;;4.28;2.78;;;21.40;99.90;;;;;;5069579;28;20048;-64
2023/06/30 06:18:27;;;;;;;4.25;3.38;;;21.30;99.90;;;;;;5067710;28;20040;-64
2023/06/30 06:20:56;;;;;;;5.80;4.38;;;21.30;99.90;;;;;;5068919;28;20131;-64
2023/06/30 06:23:23;;;;;;;4.13;3.78;;;21.30;99.90;;;;;;5069933;28;20131;-64
2023/06/30 06:25:50;;;;;;;4.50;4.10;;;21.30;99.90;;;;;;5069539;28;20040;-65
2023/06/30 06:28:17;;;;;;;3.50;3.20;;;21.30;99.90;;;;;;5069161;28;20532;-65
2023/06/30 06:30:45;;;;;;;4.38;3.67;;;21.30;99.90;;;;;;5067988;28;20113;-64
2023/06/30 06:33:12;;;;;;;4.00;3.42;;;21.30;99.90;;;;;;5068915;28;20531;-65
2023/06/30 06:35:38;;;;;;;3.35;3.05;;;21.40;99.90;;;;;;5066278;28;20686;-64
2023/06/30 06:38:05;;;;;;;2.95;2.75;;;21.40;99.90;;;;;;5068737;28;20071;-65
2023/06/30 06:40:32;;;;;;;3.35;3.13;;;21.50;99.90;;;;;;5068616;28;20064;-64
2023/06/30 06:42:59;;;;;;;3.50;3.22;;;21.40;99.90;;;;;;5068817;28;20044;-64
2023/06/30 06:45:27;;;;;;;3.38;3.17;;;21.40;99.90;;;;;;5059919;28;20051;-63
2023/06/30 06:48:20;;;;;;;4.38;4.00;;;21.40;99.90;;;;;;5068939;28;20048;-66
2023/06/30 06:50:58;;;;;;;4.38;3.05;;;21.50;99.90;;;;;;5067076;28;20058;-64
2023/06/30 06:53:30;;;;;;;2.53;2.33;;;21.50;99.90;;;;;;5048633;28;20053;-65
2023/06/30 06:55:57;;;;;;;4.78;2.80;;;21.60;99.90;;;;;;5067526;28;20159;-65
2023/06/30 06:58:26;;;;;;;3.10;2.80;;;21.70;99.90;;;;;;5067560;28;20045;-63
2023/06/30 07:00:53;;;;;;;3.13;2.92;;;21.60;99.90;;;;;;5068079;28;20516;-64
2023/06/30 07:03:20;;;;;;;3.72;3.08;;;21.50;99.90;;;;;;5067921;28;20125;-64
2023/06/30 07:05:48;;;;;;;2.83;2.63;;;21.60;99.90;;;;;;5068123;28;20052;-64
2023/06/30 07:08:16;;;;;;;2.92;2.70;;;21.60;99.90;;;;;;5065631;28;20197;-65
2023/06/30 07:10:47;;;;;;;3.17;2.88;;;21.60;99.90;;;;;;5069104;28;20044;-64
2023/06/30 07:13:19;;;;;;;4.65;3.05;;;21.60;99.90;;;;;;5067423;28;20079;-66
2023/06/30 07:15:50;;;;;;;5.15;3.10;;;21.50;99.90;;;;;;5067830;28;20044;-64
2023/06/30 07:18:17;;;;;;;3.00;2.70;;;21.60;99.90;;;;;;5068059;28;20067;-64
2023/06/30 07:20:53;;;;;;;4.72;2.90;;;21.70;99.90;;;;;;5067981;28;20032;-67
2023/06/30 07:23:19;;;;;;;3.42;3.13;;;21.80;99.90;;;;;;5067766;28;20592;-64
2023/06/30 07:25:48;;;;;;;4.57;2.90;;;21.80;99.90;;;;;;5067593;28;20681;-65
2023/06/30 07:28:15;;;;;;;3.20;2.90;;;21.80;99.90;;;;;;5068094;28;20048;-63
2023/06/30 07:30:43;;;;;;;2.35;2.17;;;21.70;99.90;;;;;;5067678;28;20697;-64
2023/06/30 07:33:10;;;;;;;2.90;2.67;;;21.60;99.90;;;;;;5068187;28;20064;-63
2023/06/30 07:35:37;;;;;;;4.00;3.45;;;21.80;99.90;;;;;;5067174;28;20705;-65
2023/06/30 07:38:04;;;;;;;4.30;3.03;;;21.80;99.90;;;;;;5068598;28;20561;-65
2023/06/30 07:40:31;;;;;;;3.33;3.03;;;21.90;99.90;;;;;;5066057;28;20532;-63
2023/06/30 07:43:18;;;;;;;3.25;2.97;;;22.10;99.90;;;;;;5061460;28;20510;-64
2023/06/30 07:45:45;;;;;;;7.15;4.15;;;22.20;99.90;;;;;;5067343;28;20071;-65
2023/06/30 07:48:12;;;;;;;2.95;2.65;;;22.20;99.90;;;;;;5068340;28;20077;-64
2023/06/30 07:50:40;;;;;;;3.58;3.33;;;22.30;99.90;;;;;;5066793;28;20041;-64
2023/06/30 07:53:21;;;;;;;3.15;2.85;;;22.30;99.90;;;;;;5066546;28;20509;-65
2023/06/30 07:55:48;;;;;;;3.08;2.58;;;22.00;99.90;;;;;;5068404;28;20098;-65
2023/06/30 07:58:15;;;;;;;3.55;3.00;;;21.90;99.90;;;;;;5065644;28;20117;-66
2023/06/30 08:00:41;;;;;;;3.90;2.97;;;21.90;99.90;;;;;;5068622;28;20040;-66
2023/06/30 08:03:08;;;;;;;2.67;2.47;;;21.90;99.90;;;;;;5066897;28;20490;-64
2023/06/30 08:05:35;;;;;;;2.47;2.28;;;21.90;99.90;;;;;;5067625;28;20047;-64
2023/06/30 08:08:03;;;;;;;3.55;2.13;;;21.90;99.90;;;;;;5067141;28;20048;-66
2023/06/30 08:10:30;;;;;;;12.18;5.60;;;21.80;99.90;;;;;;5068021;28;20060;-66
2023/06/30 08:12:57;;;;;;;5.70;3.10;;;22.00;99.90;;;;;;5066878;28;20055;-64
2023/06/30 08:15:24;;;;;;;3.70;3.33;;;22.00;99.90;;;;;;5067321;28;20569;-64
2023/06/30 08:17:50;;;;;;;4.70;4.03;;;22.10;99.90;;;;;;5049396;28;20491;-64
2023/06/30 08:20:24;;;;;;;4.15;2.78;;;22.20;99.90;;;;;;5067067;28;20051;-64
2023/06/30 08:22:53;;;;;;;3.85;3.00;;;22.30;99.90;;;;;;5066853;28;20050;-66
2023/06/30 08:25:22;;;;;;;7.78;3.25;;;22.30;99.90;;;;;;5071558;28;20151;-65
2023/06/30 08:27:49;;;;;;;5.95;3.10;;;22.30;99.90;;;;;;5070728;28;20130;-64
2023/06/30 08:30:17;;;;;;;5.18;2.65;;;22.30;99.90;;;;;;5069333;28;20150;-65
2023/06/30 08:32:48;;;;;;;13.80;3.60;;;22.30;99.90;;;;;;5070937;28;20055;-64
2023/06/30 08:35:16;;;;;;;3.47;3.13;;;22.40;99.90;;;;;;5072155;28;20063;-64
2023/06/30 08:37:43;;;;;;;3.42;2.85;;;22.20;99.90;;;;;;5071172;28;20044;-65
2023/06/30 08:40:10;;;;;;;4.93;3.20;;;22.20;99.90;;;;;;5070634;28;20459;-66
2023/06/30 08:42:42;;;;;;;2.65;2.45;;;22.40;99.90;;;;;;5071421;28;20462;-66
2023/06/30 08:45:12;;;;;;;3.60;2.33;;;22.50;99.90;;;;;;5070204;28;20059;-64
2023/06/30 08:47:39;;;;;;;;;;;22.70;99.90;;;;;;5067369;28;20036;-65
2023/06/30 08:50:08;;;;;;;3.40;3.10;;;22.60;99.90;;;;;;5071049;28;19998;-66
2023/06/30 08:52:35;;;;;;;3.30;3.00;;;22.70;99.90;;;;;;5071162;28;20037;-63
2023/06/30 08:55:05;;;;;;;3.22;2.92;;;22.60;99.90;;;;;;5069895;28;20052;-66
2023/06/30 08:57:33;;;;;;;3.00;2.70;;;22.60;99.90;;;;;;5071643;28;20128;-64
2023/06/30 09:00:00;;;;;;;4.20;3.15;;;22.60;99.90;;;;;;5070609;28;20131;-64
2023/06/30 09:02:28;;;;;;;5.22;3.83;;;22.50;99.90;;;;;;5071281;28;20509;-63
2023/06/30 09:04:56;;;;;;;5.63;3.58;;;22.40;99.90;;;;;;5069200;28;20514;-66
2023/06/30 09:07:27;;;;;;;4.55;3.30;;;22.40;99.90;;;;;;5070903;28;20121;-63
2023/06/30 09:10:00;;;;;;;3.30;3.00;;;22.40;99.90;;;;;;5071307;28;20390;-65
2023/06/30 09:12:28;;;;;;;4.45;3.10;;;22.50;99.90;;;;;;5070615;28;20050;-64
2023/06/30 09:14:59;;;;;;;4.05;3.65;;;22.50;99.90;;;;;;5069661;28;21029;-64
2023/06/30 09:17:26;;;;;;;3.00;2.80;;;22.40;99.90;;;;;;5070562;28;20135;-67
2023/06/30 09:19:53;;;;;;;4.75;4.32;;;22.30;99.90;;;;;;5069191;28;20052;-64
2023/06/30 09:22:20;;;;;;;4.82;3.80;;;22.30;99.90;;;;;;5070497;28;20044;-66
2023/06/30 09:25:27;;;;;;;4.63;3.55;;;22.30;99.90;;;;;;5070781;28;20596;-64
2023/06/30 09:27:55;;;;;;;3.85;3.55;;;22.40;99.90;;;;;;5070632;28;20046;-64
2023/06/30 09:30:32;;;;;;;3.85;3.55;;;22.40;99.90;;;;;;5069462;28;20043;-66
2023/06/30 09:32:59;;;;;;;3.00;2.80;;;22.40;99.90;;;;;;5070605;28;20098;-63
2023/06/30 09:35:35;;;;;;;3.85;3.55;;;22.40;99.90;;;;;;5067944;28;20485;-65
2023/06/30 09:38:02;;;;;;;4.10;3.80;;;22.40;99.90;;;;;;5069152;28;20044;-63
2023/06/30 09:40:29;;;;;;;4.25;3.58;;;22.40;99.90;;;;;;5069183;28;20126;-65
2023/06/30 09:42:55;;;;;;;3.80;3.50;;;22.40;99.90;;;;;;5069993;28;20051;-65
2023/06/30 09:45:22;;;;;;;3.53;3.22;;;22.40;99.90;;;;;;5069277;28;20127;-63
2023/06/30 09:47:53;;;;;;;3.35;2.95;;;22.50;99.90;;;;;;5069922;28;20047;-65
2023/06/30 09:50:29;;;;;;;4.05;3.10;;;22.60;99.90;;;;;;5067885;28;20614;-65
2023/06/30 09:52:56;;;;;;;3.20;2.90;;;22.50;99.90;;;;;;5069120;28;20164;-65
2023/06/30 09:55:23;;;;;;;3.47;3.17;;;22.50;99.90;;;;;;5069121;28;20046;-65
2023/06/30 09:57:53;;;;;;;3.97;3.65;;;22.50;99.90;;;;;;5070448;28;20131;-65
2023/06/30 10:00:20;;;;;;;3.72;3.33;;;22.60;99.90;;;;;;5069200;28;20056;-63
2023/06/30 10:03:03;;;;;;;3.55;3.25;;;22.70;99.90;;;;;;5069109;28;20318;-64
2023/06/30 10:05:31;;;;;;;4.00;3.35;;;22.70;99.90;;;;;;5069664;28;20051;-64
2023/06/30 10:08:01;;;;;;;3.05;2.75;;;22.70;99.90;;;;;;5068918;28;20118;-63
2023/06/30 10:10:30;;;;;;;3.33;3.13;;;22.70;99.90;;;;;;5067686;28;20475;-65
2023/06/30 10:13:00;;;;;;;3.60;3.28;;;22.80;99.90;;;;;;5069293;28;20168;-65
2023/06/30 10:15:29;;;;;;;3.58;3.28;;;22.70;99.90;;;;;;5068549;28;20481;-65
2023/06/30 10:17:58;;;;;;;4.28;3.40;;;22.80;99.90;;;;;;5069459;28;20048;-64
2023/06/30 10:20:25;;;;;;;3.22;3.00;;;22.80;99.90;;;;;;5069928;28;20044;-64
2023/06/30 10:23:09;;;;;;;3.67;3.38;;;22.90;99.90;;;;;;5069408;28;20055;-64
2023/06/30 10:25:37;;;;;;;3.17;2.88;;;22.90;99.90;;;;;;5067602;28;20048;-63
2023/06/30 10:28:06;;;;;;;12.90;4.07;;;22.90;99.90;;;;;;5069183;28;20052;-66
2023/06/30 10:30:34;;;;;;;2.72;2.42;;;23.10;99.90;;;;;;5068530;28;20054;-64
2023/06/30 10:33:01;;;;;;;2.30;2.10;;;23.30;99.90;;;;;;5069140;28;20144;-66
2023/06/30 10:35:30;;;;;;;2.00;1.90;;;23.40;99.90;;;;;;5067206;28;20102;-64
2023/06/30 10:37:57;;;;;;;1.95;1.75;;;23.60;99.90;;;;;;5069306;28;20439;-65
2023/06/30 10:40:29;;;;;;;3.75;2.35;;;23.60;99.90;;;;;;5067949;28;20433;-66
2023/06/30 10:42:57;;;;;;;2.30;2.10;;;23.90;99.90;;;;;;5067465;28;20044;-64
2023/06/30 10:45:34;;;;;;;2.13;2.03;;;24.00;99.90;;;;;;5068692;28;20131;-64
2023/06/30 10:48:09;;;;;;;2.15;2.03;;;24.30;99.90;;;;;;5067896;28;20044;-65
2023/06/30 10:50:44;;;;;;;3.97;2.60;;;24.30;99.90;;;;;;5068401;28;20468;-63
2023/06/30 10:53:20;;;;;;;3.35;1.95;;;24.40;99.90;;;;;;5068557;28;20122;-66
2023/06/30 10:55:47;;;;;;;3.80;2.55;;;24.40;99.90;;;;;;5069091;28;20084;-64
2023/06/30 10:58:23;;;;;;;3.20;2.53;;;24.60;99.90;;;;;;5059841;28;20055;-64
2023/06/30 11:01:06;;;;;;;4.00;2.60;;;24.60;99.90;;;;;;5067284;28;20091;-65
2023/06/30 11:04:08;;;;;;;2.70;2.50;;;24.40;99.90;;;;;;5067924;28;20032;-63
2023/06/30 11:06:36;;;;;;;2.63;2.42;;;24.20;99.90;;;;;;5048247;28;20135;-65
2023/06/30 11:09:09;;;;;;;3.10;2.63;;;24.10;99.90;;;;;;5068468;28;20055;-66
2023/06/30 11:11:49;;;;;;;3.17;2.88;;;24.10;99.90;;;;;;5067495;28;20522;-64
2023/06/30 11:14:32;;;;;;;;;;;24.10;99.90;;;;;;5068782;28;20048;-65
2023/06/30 11:17:03;;;;;;;2.53;2.33;;;24.20;99.90;;;;;;5067053;28;20603;-64
2023/06/30 11:19:30;;;;;;;3.63;3.33;;;24.30;99.90;;;;;;5067814;28;20048;-65
2023/06/30 11:22:23;;;;;;;3.33;2.00;;;24.40;99.90;;;;;;5068206;28;20052;-63
2023/06/30 11:24:51;;;;;;;2.63;2.03;;;24.40;99.90;;;;;;5068440;28;20150;-63
2023/06/30 11:27:18;;;;;;;3.33;2.58;;;24.40;99.90;;;;;;5068482;28;20105;-65
2023/06/30 11:29:52;;;;;;;3.05;2.40;;;24.30;99.90;;;;;;5068406;28;20052;-64
2023/06/30 11:32:31;;;;;;;3.38;2.15;;;24.30;99.90;;;;;;5064966;28;20149;-64
2023/06/30 11:35:01;;;;;;;2.03;1.83;;;24.30;99.90;;;;;;5068240;28;20040;-64
2023/06/30 11:37:30;;;;;;;4.18;2.30;;;24.20;99.90;;;;;;5067095;28;20382;-65
2023/06/30 11:39:58;;;;;;;2.72;2.30;;;24.20;99.90;;;;;;5067868;28;20056;-65
2023/06/30 11:42:25;;;;;;;2.97;1.85;;;24.30;99.90;;;;;;5067442;28;20037;-64
2023/06/30 11:44:52;;;;;;;4.22;1.90;;;24.40;99.90;;;;;;5067387;28;20444;-65
2023/06/30 11:47:19;;;;;;;2.65;2.17;;;24.40;99.90;;;;;;5067854;28;20044;-66
2023/06/30 11:49:49;;;;;;;;;;;24.50;99.90;;;;;;5067002;28;20047;-64
2023/06/30 11:52:18;;;;;;;2.85;1.58;;;24.40;99.90;;;;;;5067055;28;20286;-63
2023/06/30 11:54:45;;;;;;;2.15;1.83;;;24.40;99.90;;;;;;5067573;28;20050;-65
2023/06/30 11:57:12;;;;;;;2.08;1.88;;;24.10;99.90;;;;;;5067026;28;20482;-66
2023/06/30 11:59:39;;;;;;;2.25;1.80;;;24.00;99.90;;;;;;5068855;28;20071;-65
2023/06/30 12:02:06;;;;;;;2.85;2.42;;;24.00;99.90;;;;;;5071421;28;20570;-64
2023/06/30 12:04:35;;;;;;;3.10;2.40;;;24.00;99.90;;;;;;5071591;28;20055;-65
2023/06/30 12:07:04;;;;;;;3.38;2.17;;;23.90;99.90;;;;;;5069886;28;20059;-65
2023/06/30 12:09:34;;;;;;;3.30;2.75;;;24.00;99.90;;;;;;5070565;28;20060;-64
2023/06/30 12:12:02;;;;;;;3.83;2.67;;;24.00;99.90;;;;;;5071019;28;20048;-65
2023/06/30 12:14:29;;;;;;;3.35;2.45;;;23.90;99.90;;;;;;5071927;28;20046;-64
2023/06/30 12:16:57;;;;;;;4.75;3.25;;;23.90;99.90;;;;;;5070920;28;20049;-65
2023/06/30 12:19:26;;;;;;;3.60;2.83;;;23.90;99.90;;;;;;5069405;28;20852;-66
2023/06/30 12:21:54;;;;;;;2.80;2.60;;;23.90;99.90;;;;;;5071026;28;21587;-64
2023/06/30 12:24:22;;;;;;;3.10;2.80;;;23.80;99.90;;;;;;5071436;28;20478;-64
2023/06/30 12:26:52;;;;;;;3.03;2.58;;;23.80;99.90;;;;;;5070855;28;20048;-65
2023/06/30 12:29:20;;;;;;;3.47;3.17;;;23.90;99.90;;;;;;5070728;28;20047;-64
2023/06/30 12:31:47;;;;;;;5.68;3.40;;;23.90;99.90;;;;;;5071105;28;20111;-63
2023/06/30 12:34:30;;;;;;;5.45;3.80;;;23.70;99.90;;;;;;5071576;28;20048;-66
2023/06/30 12:36:58;;;;;;;3.83;3.50;;;23.50;99.90;;;;;;5069726;28;20067;-64
2023/06/30 12:39:25;;;;;;;6.78;4.70;;;23.50;99.90;;;;;;5070447;28;20052;-65
2023/06/30 12:41:51;;;;;;;5.75;4.63;;;23.40;99.90;;;;;;5070930;28;20051;-65
2023/06/30 12:44:18;;;;;;;6.78;5.70;;;23.30;99.90;;;;;;5070371;28;20062;-64
2023/06/30 12:46:57;;;;;;;7.00;5.47;;;23.40;99.90;;;;;;5069366;28;20044;-66
2023/06/30 12:49:27;;;;;;;6.57;5.57;;;23.40;99.90;;;;;;5070606;28;20068;-66
2023/06/30 12:51:55;;;;;;;7.15;6.45;;;23.40;99.90;;;;;;5069134;28;20278;-65
2023/06/30 12:54:22;;;;;;;8.05;7.22;;;23.50;99.90;;;;;;5068186;28;20048;-65
2023/06/30 12:56:50;;;;;;;10.82;7.82;;;23.40;99.90;;;;;;5069569;28;20070;-64